Nearby METAR Reports

 

KMQS - Coatesville, Pennsylvania, USA
Distance from station: ENE 6mi, 10km
Updated: Tue, 20-Aug-2019 7:55pm EDT
Clear
Clear
 Wind from calm
Wind: Calm
Temperature: 81°F , 27°C
Heat Index: 85°F , 29°C
Dew Point: 72°F , 22°C
Humidity: 74%
Barometer: 30.06 inHg , 1017.9 hPa
Clouds: Clear
Visibility: 10 miles , 16 km
2019/08/20 23:55 KMQS 202355Z AUTO 00000KT 10SM CLR 27/22 A3006 RMK AO2
KLNS - Lancaster, Pennsylvania, USA
Distance from station: NW 21mi, 33km
Updated: Tue, 20-Aug-2019 7:53pm EDT
Few Clouds
Few Clouds
 Wind from W
Wind: W 9 mph , 15 km/h
Temperature: 82°F , 28°C
Heat Index: 86°F , 30°C
Dew Point: 70°F , 21°C
Humidity: 66%
Barometer: 30.02 inHg , 1016.6 hPa
Clouds: Few Clouds
Visibility: 10 miles , 16 km
Cloud details: Few Clouds 7000 ft
2019/08/20 23:53 KLNS 202353Z 27008KT 10SM FEW070 28/21 A3002 RMK AO2 LTG DSNT SW SLP164 T02780211 10333 20278 56008
 
KILG - Wilmington, Delaware, USA
Distance from station: SE 28mi, 45km
Updated: Tue, 20-Aug-2019 7:51pm EDT
Clear
Clear
 Wind from SSE
Wind: SSE 7 mph , 11 km/h
Temperature: 82°F , 28°C
Heat Index: 89°F , 32°C
Dew Point: 75°F , 24°C
Humidity: 79%
Barometer: 30.02 inHg , 1016.6 hPa
Clouds: Clear
Visibility: 10 miles , 16 km
2019/08/20 23:51 KILG 202351Z 16006KT 10SM CLR 28/24 A3002 RMK AO2 SLP166 60012 T02780239 10328 20272 56012
KRDG - Reading, Pennsylvania, USA
Distance from station: N 29mi, 47km
Updated: Tue, 20-Aug-2019 7:54pm EDT
Few Clouds
Few Clouds
 Wind from SSE
Wind: SSE 3 mph , 6 km/h
Temperature: 84°F , 29°C
Heat Index: 90°F , 32°C
Dew Point: 73°F , 23°C
Humidity: 70%
Barometer: 30.00 inHg , 1015.9 hPa
Clouds: Few Clouds
Visibility: 10 miles , 16 km
Cloud details: Few Clouds 5500 ft
2019/08/20 23:54 KRDG 202354Z 16003KT 10SM FEW055 29/23 A3000 RMK AO2 SLP160 T02940228 10339 20289 56011
 
KPTW - Pottstown, Pennsylvania, USA
Distance from station: NE 30mi, 48km
Updated: Tue, 20-Aug-2019 7:54pm EDT
Clear
Clear
 Wind from SSW
Wind: SSW 3 mph , 6 km/h
Temperature: 82°F , 28°C
Heat Index: 86°F , 30°C
Dew Point: 70°F , 21°C
Humidity: 66%
Barometer: 30.04 inHg , 1017.3 hPa
Clouds: Clear
Visibility: 9 miles , 14 km
2019/08/20 23:54 KPTW 202354Z AUTO 21003KT 9SM CLR 28/21 A3004 RMK AO2 SLP167 T02830211 10317 20283 56011